createdAt,value
2022-11-21T11:57:52.483Z,8.40
2022-11-21T12:03:04.234Z,10.50
2022-11-21T12:13:41.993Z,12.30
2022-11-21T12:19:06.693Z,7.90
2022-11-21T12:24:22.393Z,8.80
2022-11-21T12:29:47.030Z,13.70
2022-11-21T12:35:08.341Z,13.70
2022-11-21T12:40:31.257Z,12.50
2022-11-21T12:45:34.490Z,10.60
2022-11-21T12:51:28.696Z,12.70
2022-11-21T12:56:39.970Z,12.70
2022-11-21T13:02:19.258Z,8.90
2022-11-21T13:07:40.850Z,8.90
2022-11-21T13:15:26.360Z,8.70
2022-11-21T13:20:38.018Z,9.20
2022-11-21T13:30:54.162Z,7.50
2022-11-21T13:35:56.540Z,10.70
2022-11-21T13:41:21.635Z,10.30
2022-11-21T13:47:02.631Z,11.50
2022-11-21T13:52:33.750Z,11.10
2022-11-21T13:57:50.849Z,10.30
2022-11-21T14:03:13.331Z,11.80
2022-11-21T14:08:18.408Z,13.50
2022-11-21T14:13:28.632Z,14.80
2022-11-21T14:23:19.390Z,13.20
2022-11-21T14:28:29.668Z,16.20
2022-11-21T14:33:33.299Z,16.20
2022-11-21T14:39:07.655Z,18.10
2022-11-21T14:44:11.214Z,14.10
2022-11-21T14:49:21.084Z,17.40
2022-11-21T14:54:27.203Z,18.70
2022-11-21T14:59:34.881Z,19.70
2022-11-21T15:04:36.728Z,23.10
2022-11-21T15:20:14.206Z,20.90
2022-11-21T15:25:20.433Z,22.00
2022-11-21T15:30:27.121Z,20.20
2022-11-21T15:35:37.762Z,23.20
2022-11-21T15:40:42.992Z,28.60
2022-11-21T15:45:47.452Z,23.00
2022-11-21T15:50:49.273Z,23.00
2022-11-21T15:55:51.815Z,17.90
2022-11-21T16:00:53.645Z,17.90
2022-11-21T16:05:55.466Z,22.90
2022-11-21T16:10:57.955Z,27.00
2022-11-21T16:16:00.964Z,25.50
2022-11-21T16:21:10.992Z,25.50
2022-11-21T16:26:12.849Z,26.20
2022-11-21T16:31:23.199Z,26.20
2022-11-21T16:36:27.622Z,31.40
2022-11-21T16:41:29.503Z,31.30
2022-11-21T16:46:31.251Z,23.40
2022-11-21T16:51:33.027Z,27.60
2022-11-21T16:56:34.866Z,29.70
2022-11-21T17:01:36.732Z,37.90
2022-11-21T17:06:38.582Z,36.80
2022-11-21T17:11:40.332Z,33.80
2022-11-21T17:16:42.160Z,33.70
2022-11-21T17:21:43.977Z,35.10
2022-11-21T17:26:45.783Z,30.40
2022-11-21T17:31:51.168Z,25.30
2022-11-21T17:36:52.911Z,25.80
2022-11-21T17:41:54.817Z,26.20
2022-11-21T17:46:59.232Z,29.10
2022-11-21T17:52:01.023Z,30.50
2022-11-21T17:57:03.046Z,45.60
2022-11-21T18:02:05.061Z,41.60
2022-11-21T18:07:07.062Z,38.70
2022-11-21T18:12:08.932Z,48.70
2022-11-21T18:17:10.858Z,55.60
2022-11-21T18:22:12.638Z,50.40
2022-11-21T18:27:14.371Z,40.10
2022-11-21T18:32:16.149Z,114.50
2022-11-21T18:37:17.898Z,30.70
2022-11-21T18:42:19.669Z,31.10
2022-11-21T18:47:21.405Z,31.60
2022-11-21T18:52:23.324Z,34.30
2022-11-21T18:57:25.094Z,33.00
2022-11-21T19:02:26.888Z,32.60
2022-11-21T19:07:28.905Z,29.70
2022-11-21T19:12:36.274Z,36.30
2022-11-21T19:17:41.018Z,38.40
2022-11-21T19:22:42.793Z,32.60
2022-11-21T19:27:44.576Z,31.90
2022-11-21T19:32:46.352Z,36.10
2022-11-21T19:37:48.122Z,32.00
2022-11-21T19:42:49.893Z,23.10
2022-11-21T19:47:56.953Z,23.70
2022-11-21T19:52:58.702Z,24.70
2022-11-21T19:58:00.509Z,22.60
2022-11-21T20:03:02.283Z,22.50
2022-11-21T20:08:09.934Z,25.80
2022-11-21T20:13:18.332Z,39.60
2022-11-21T20:18:20.160Z,43.30
2022-11-21T20:23:21.921Z,52.80
2022-11-21T20:28:24.975Z,52.80
2022-11-21T20:33:26.710Z,46.80
2022-11-21T20:38:28.450Z,44.80
2022-11-21T20:44:02.774Z,51.10
2022-11-21T20:53:57.223Z,48.40
2022-11-21T20:59:05.408Z,48.40
2022-11-21T21:04:09.304Z,39.40
2022-11-21T21:09:11.098Z,35.40
2022-11-21T21:19:14.475Z,33.30
2022-11-21T21:24:17.281Z,36.30
2022-11-21T21:29:21.163Z,36.40
2022-11-21T21:34:23.158Z,61.60
2022-11-21T21:39:25.528Z,57.20
2022-11-21T21:44:33.061Z,45.30
2022-11-21T21:49:35.484Z,76.70
2022-11-21T21:54:37.204Z,93.00
2022-11-21T22:04:40.579Z,50.50
2022-11-21T22:09:42.469Z,46.20
2022-11-21T22:14:49.420Z,42.50
2022-11-21T22:19:51.180Z,50.70
2022-11-21T22:24:53.009Z,65.80
2022-11-21T22:29:55.191Z,66.90
2022-11-21T22:35:00.932Z,112.60
2022-11-21T22:40:02.845Z,78.30
2022-11-21T22:45:05.184Z,59.40
2022-11-21T22:50:07.964Z,58.30
2022-11-21T22:55:09.755Z,66.20
2022-11-21T23:00:12.198Z,69.60
2022-11-21T23:05:14.009Z,73.40
2022-11-21T23:10:16.058Z,70.50
2022-11-21T23:15:17.842Z,96.10
2022-11-21T23:20:19.618Z,95.70
2022-11-21T23:25:21.400Z,94.90
2022-11-21T23:30:23.154Z,95.30
2022-11-21T23:35:24.959Z,118.80
2022-11-21T23:40:26.692Z,108.60
2022-11-21T23:50:30.883Z,106.90
2022-11-21T23:55:32.697Z,99.10
